createdAt,value
2023-03-05T00:01:33.364Z,97425.16
2023-03-05T00:04:05.224Z,97435.66
2023-03-05T00:06:34.306Z,97435.81
2023-03-05T00:09:03.556Z,97443.63
2023-03-05T00:11:33.773Z,97448.13
2023-03-05T00:14:04.714Z,97445.75
2023-03-05T00:16:32.978Z,97438.72
2023-03-05T00:19:02.873Z,97439.75
2023-03-05T00:21:33.504Z,97445.97
2023-03-05T00:24:02.910Z,97443.44
2023-03-05T00:26:34.574Z,97440.97
2023-03-05T00:29:02.993Z,97440.09
2023-03-05T00:31:32.256Z,97443.44
2023-03-05T00:34:03.654Z,97416.78
2023-03-05T00:36:32.614Z,97434.91
2023-03-05T00:39:01.551Z,97439.44
2023-03-05T00:41:29.749Z,97434.59
2023-03-05T00:43:58.044Z,97433.78
2023-03-05T00:46:27.666Z,97430.31
2023-03-05T00:48:56.907Z,97430.41
2023-03-05T00:51:26.730Z,97431.19
2023-03-05T00:53:54.964Z,97432.25
2023-03-05T00:56:23.335Z,97438.25
2023-03-05T00:58:53.347Z,97429.72
2023-03-05T01:01:21.621Z,97427.28
2023-03-05T01:03:49.836Z,97428.16
2023-03-05T01:06:18.508Z,97421.22
2023-03-05T01:08:48.151Z,97429.13
2023-03-05T01:11:16.363Z,97423.31
2023-03-05T01:13:44.578Z,97423.59
2023-03-05T01:16:12.867Z,97422.69
2023-03-05T01:18:41.529Z,97414.84
2023-03-05T01:21:10.143Z,97426.94
2023-03-05T01:23:38.501Z,97420.88
2023-03-05T01:26:08.670Z,97427.72
2023-03-05T01:28:38.316Z,97420.00
2023-03-05T01:31:09.870Z,97426.88
2023-03-05T01:33:39.064Z,97426.13
2023-03-05T01:36:14.979Z,97422.78
2023-03-05T01:38:43.872Z,97422.84
2023-03-05T01:41:15.038Z,97429.06
2023-03-05T01:43:44.284Z,97417.00
2023-03-05T01:46:35.809Z,97421.22
2023-03-05T01:49:09.891Z,97422.19
2023-03-05T01:51:42.216Z,97418.69
2023-03-05T01:54:13.046Z,97420.50
2023-03-05T01:56:44.006Z,97419.69
2023-03-05T01:59:13.307Z,97418.09
2023-03-05T02:01:46.200Z,97418.06
2023-03-05T02:04:17.839Z,97414.47
2023-03-05T02:06:46.706Z,97416.28
2023-03-05T02:09:15.255Z,97413.50
2023-03-05T02:11:45.064Z,97418.50
2023-03-05T02:14:13.298Z,97417.66
2023-03-05T02:16:42.493Z,97414.28
2023-03-05T02:19:13.565Z,97413.38
2023-03-05T02:21:45.793Z,97409.13
2023-03-05T02:24:15.130Z,97406.72
2023-03-05T02:26:45.031Z,97404.25
2023-03-05T02:29:18.664Z,97412.06
2023-03-05T02:31:47.254Z,97402.50
2023-03-05T02:34:15.897Z,97408.72
2023-03-05T02:36:45.399Z,97414.88
2023-03-05T02:39:14.093Z,97404.56
2023-03-05T02:41:42.202Z,97401.84
2023-03-05T02:44:10.333Z,97398.56
2023-03-05T02:46:38.531Z,97402.13
2023-03-05T02:49:06.622Z,97381.44
2023-03-05T02:51:34.762Z,97398.66
2023-03-05T02:54:04.494Z,97390.13
2023-03-05T02:56:32.928Z,97397.25
2023-03-05T02:59:02.615Z,97392.22
2023-03-05T03:01:30.853Z,97386.88
2023-03-05T03:03:59.353Z,97384.41
2023-03-05T03:06:27.627Z,97384.25
2023-03-05T03:08:55.794Z,97379.91
2023-03-05T03:11:25.313Z,97381.59
2023-03-05T03:13:53.558Z,97374.84
2023-03-05T03:16:22.060Z,97379.31
2023-03-05T03:18:50.336Z,97367.34
2023-03-05T03:21:20.116Z,97375.81
2023-03-05T03:23:48.329Z,97382.06
2023-03-05T03:26:16.798Z,97379.63
2023-03-05T03:28:46.924Z,97380.38
2023-03-05T03:31:15.203Z,97383.88
2023-03-05T03:33:43.330Z,97380.41
2023-03-05T03:36:11.898Z,97383.03
2023-03-05T03:38:40.066Z,97372.94
2023-03-05T03:41:08.963Z,97377.34
2023-03-05T03:43:37.171Z,97371.97
2023-03-05T03:46:08.544Z,97378.09
2023-03-05T03:48:37.135Z,97368.63
2023-03-05T03:51:07.222Z,97359.19
2023-03-05T03:53:35.913Z,97373.84
2023-03-05T03:56:04.584Z,97373.88
2023-03-05T03:58:32.747Z,97369.66
2023-03-05T04:01:00.952Z,97362.72
2023-03-05T04:03:30.463Z,97361.84
2023-03-05T04:05:58.796Z,97371.47
2023-03-05T04:08:26.935Z,97365.47
2023-03-05T04:10:55.031Z,97355.06
2023-03-05T04:13:23.143Z,97357.56
2023-03-05T04:15:51.370Z,97351.53
2023-03-05T04:18:19.520Z,97345.56
2023-03-05T04:20:49.335Z,97347.41
2023-03-05T04:23:17.994Z,97346.31
2023-03-05T04:25:46.118Z,97347.25
2023-03-05T04:28:14.279Z,97333.56
2023-03-05T04:30:42.502Z,97346.44
2023-03-05T04:33:10.621Z,97344.84
2023-03-05T04:35:38.737Z,97333.66
2023-03-05T04:38:08.685Z,97338.09
2023-03-05T04:40:36.825Z,97331.13
2023-03-05T04:43:05.224Z,97332.16
2023-03-05T04:45:33.486Z,97332.19
2023-03-05T04:48:02.041Z,97330.44
2023-03-05T04:50:30.134Z,97340.03
2023-03-05T04:52:58.320Z,97328.34
2023-03-05T04:55:28.792Z,97337.72
2023-03-05T04:57:56.893Z,97336.72
2023-03-05T05:00:25.428Z,97337.78
2023-03-05T05:02:54.286Z,97335.13
2023-03-05T05:05:24.914Z,97337.63
2023-03-05T05:07:56.329Z,97322.91
2023-03-05T05:10:25.393Z,97329.13
2023-03-05T05:12:55.225Z,97338.88
2023-03-05T05:15:23.392Z,97338.75
2023-03-05T05:17:52.631Z,97319.84
2023-03-05T05:20:20.886Z,97329.41
2023-03-05T05:22:49.016Z,97326.03
2023-03-05T05:25:17.231Z,97326.94
2023-03-05T05:27:45.455Z,97330.22
2023-03-05T05:30:15.428Z,97329.22
2023-03-05T05:32:43.597Z,97326.63
2023-03-05T05:35:12.383Z,97333.53
2023-03-05T05:37:40.486Z,97325.53
2023-03-05T05:40:10.139Z,97325.59
2023-03-05T05:42:38.578Z,97322.06
2023-03-05T05:45:07.858Z,97325.38
2023-03-05T05:47:37.345Z,97330.53
2023-03-05T05:50:07.893Z,97336.59
2023-03-05T05:52:36.009Z,97329.56
2023-03-05T05:55:04.537Z,97329.38
2023-03-05T05:57:32.671Z,97334.34
2023-03-05T06:00:00.831Z,97337.75
2023-03-05T06:02:28.940Z,97334.91
2023-03-05T06:04:58.486Z,97342.56
2023-03-05T06:07:26.601Z,97345.13
2023-03-05T06:09:54.705Z,97345.84
2023-03-05T06:12:22.820Z,97336.13
2023-03-05T06:14:50.928Z,97340.19
2023-03-05T06:17:29.837Z,97351.09
2023-03-05T06:19:59.694Z,97350.00
2023-03-05T06:22:28.271Z,97344.66
2023-03-05T06:24:56.529Z,97352.16
2023-03-05T06:27:24.649Z,97347.44
2023-03-05T06:29:54.418Z,97347.66
2023-03-05T06:32:22.609Z,97338.59
2023-03-05T06:34:50.827Z,97343.69
2023-03-05T06:37:20.423Z,97339.75
2023-03-05T06:39:48.780Z,97341.09
2023-03-05T06:42:19.396Z,97338.81
2023-03-05T06:44:48.434Z,97339.16
2023-03-05T06:47:16.751Z,97336.09
2023-03-05T06:49:44.963Z,97338.19
2023-03-05T06:52:13.161Z,97332.53
2023-03-05T06:54:42.846Z,97338.66
2023-03-05T06:57:11.663Z,97329.06
2023-03-05T06:59:39.886Z,97337.88
2023-03-05T07:02:10.179Z,97335.75
2023-03-05T07:04:38.432Z,97337.00
2023-03-05T07:07:06.648Z,97336.16
2023-03-05T07:09:34.769Z,97328.25
2023-03-05T07:12:04.386Z,97338.78
2023-03-05T07:14:32.539Z,97327.59
2023-03-05T07:17:00.672Z,97326.72
2023-03-05T07:19:28.968Z,97329.97
2023-03-05T07:21:57.099Z,97325.53
2023-03-05T07:24:29.849Z,97331.03
2023-03-05T07:26:58.429Z,97322.88
2023-03-05T07:29:29.199Z,97322.25
2023-03-05T07:31:57.492Z,97325.47
2023-03-05T07:34:27.208Z,97323.69
2023-03-05T07:36:55.646Z,97321.16
2023-03-05T07:39:23.817Z,97310.91
2023-03-05T07:41:52.694Z,97307.91
2023-03-05T07:44:30.276Z,97309.91
2023-03-05T07:46:58.433Z,97316.13
2023-03-05T07:49:26.547Z,97308.28
2023-03-05T07:51:54.633Z,97301.59
2023-03-05T07:54:22.725Z,97298.56
2023-03-05T07:56:50.832Z,97304.81
2023-03-05T07:59:19.000Z,97297.25
2023-03-05T08:01:48.541Z,97288.59
2023-03-05T08:04:17.162Z,97282.13
2023-03-05T08:06:47.003Z,97284.09
2023-03-05T08:09:15.187Z,97282.28
2023-03-05T08:11:43.584Z,97274.56
2023-03-05T08:14:13.450Z,97281.97
2023-03-05T08:16:41.708Z,97272.50
2023-03-05T08:19:11.992Z,97274.53
2023-03-05T08:21:40.144Z,97277.31
2023-03-05T08:24:10.125Z,97275.41
2023-03-05T08:26:39.615Z,97274.13
2023-03-05T08:29:09.401Z,97266.06
2023-03-05T08:31:38.845Z,97264.50
2023-03-05T08:34:07.548Z,97264.50
2023-03-05T08:36:37.178Z,97265.25
2023-03-05T08:39:06.826Z,97267.06
2023-03-05T08:41:35.117Z,97253.50
2023-03-05T08:44:03.960Z,97259.75
2023-03-05T08:46:32.149Z,97252.53
2023-03-05T08:49:00.542Z,97244.94
2023-03-05T08:51:29.169Z,97239.31
2023-03-05T08:53:59.998Z,97246.84
2023-03-05T08:56:31.231Z,97260.38
2023-03-05T08:58:59.422Z,97234.91
2023-03-05T09:01:27.958Z,97248.03
2023-03-05T09:03:56.256Z,97248.31
2023-03-05T09:06:27.796Z,97240.91
2023-03-05T09:08:56.090Z,97232.25
2023-03-05T09:11:25.673Z,97236.63
2023-03-05T09:13:53.907Z,97234.47
2023-03-05T09:16:22.249Z,97226.91
2023-03-05T09:18:50.452Z,97225.72
2023-03-05T09:21:19.279Z,97230.59
2023-03-05T09:23:48.235Z,97221.19
2023-03-05T09:26:19.386Z,97221.91
2023-03-05T09:28:49.713Z,97218.88
2023-03-05T09:31:18.821Z,97229.84
2023-03-05T09:33:48.776Z,97214.63
2023-03-05T09:36:22.917Z,97209.59
2023-03-05T09:38:53.726Z,97196.34
2023-03-05T09:41:32.011Z,97198.72
2023-03-05T09:44:14.180Z,97198.47
2023-03-05T09:46:53.579Z,97188.00
2023-03-05T09:49:32.119Z,97193.03
2023-03-05T09:52:07.463Z,97192.44
2023-03-05T09:54:41.609Z,97183.94
2023-03-05T09:57:18.659Z,97190.72
2023-03-05T09:59:51.634Z,97184.78
2023-03-05T10:02:23.957Z,97185.94
2023-03-05T10:04:59.139Z,97186.53
2023-03-05T10:07:31.558Z,97183.44
2023-03-05T10:10:01.910Z,97180.84
2023-03-05T10:12:42.807Z,97173.69
2023-03-05T10:15:16.370Z,97162.97
2023-03-05T10:18:10.212Z,97156.13
2023-03-05T10:20:48.172Z,97158.53
2023-03-05T10:23:27.588Z,97164.09
2023-03-05T10:26:05.446Z,97157.50
2023-03-05T10:28:44.719Z,97153.44
2023-03-05T10:31:33.851Z,97150.94
2023-03-05T10:34:24.015Z,97136.41
2023-03-05T10:37:07.420Z,97137.13
2023-03-05T10:39:53.194Z,97129.78
2023-03-05T10:42:31.280Z,97128.59
2023-03-05T10:45:01.397Z,97120.75
2023-03-05T10:47:38.991Z,97114.13
2023-03-05T10:50:17.769Z,97114.09
2023-03-05T10:52:51.765Z,97109.28
2023-03-05T10:55:23.723Z,97099.66
2023-03-05T10:57:53.384Z,97106.03
2023-03-05T11:00:23.943Z,97093.19
2023-03-05T11:03:00.105Z,97088.38
2023-03-05T11:05:42.608Z,97079.31
2023-03-05T11:08:33.016Z,97077.63
2023-03-05T11:11:16.662Z,97070.94
2023-03-05T11:13:58.433Z,97054.09
2023-03-05T11:16:28.601Z,97056.78
2023-03-05T11:19:22.477Z,97062.47
2023-03-05T11:22:11.251Z,97048.34
2023-03-05T11:24:41.568Z,97035.63
2023-03-05T11:27:26.872Z,97041.50
2023-03-05T11:29:56.206Z,97034.97
2023-03-05T11:32:26.292Z,97038.41
2023-03-05T11:34:58.427Z,97024.44
2023-03-05T11:37:31.516Z,97020.06
2023-03-05T11:40:23.721Z,97005.38
2023-03-05T11:42:57.174Z,97019.53
2023-03-05T11:45:27.853Z,97016.09
2023-03-05T11:48:00.275Z,97013.25
2023-03-05T11:50:32.684Z,97008.47
2023-03-05T11:53:07.441Z,97006.34
2023-03-05T11:55:41.582Z,96990.97
2023-03-05T11:58:31.177Z,96989.28
2023-03-05T12:01:01.184Z,96980.75
2023-03-05T12:03:34.749Z,96979.38
2023-03-05T12:06:12.172Z,96965.75
2023-03-05T12:08:46.257Z,96964.09
2023-03-05T12:11:20.480Z,96968.03
2023-03-05T12:13:53.810Z,96963.22
2023-03-05T12:16:29.923Z,96955.94
2023-03-05T12:19:10.773Z,96956.66
2023-03-05T12:21:43.338Z,96948.16
2023-03-05T12:24:36.726Z,96940.44
2023-03-05T12:27:11.732Z,96946.03
2023-03-05T12:29:43.125Z,96933.41
2023-03-05T12:33:03.863Z,96934.72
2023-03-05T12:35:37.890Z,96929.59
2023-03-05T12:38:26.871Z,96920.75
2023-03-05T12:41:40.880Z,96921.19
2023-03-05T12:44:24.228Z,96917.72
2023-03-05T12:47:17.915Z,96909.66
2023-03-05T12:49:49.570Z,96907.09
2023-03-05T12:52:32.034Z,96901.72
2023-03-05T12:55:21.559Z,96900.97
2023-03-05T12:57:56.017Z,96899.69
2023-03-05T13:00:27.520Z,96901.47
2023-03-05T13:03:00.883Z,96911.13
2023-03-05T13:05:33.887Z,96894.75
2023-03-05T13:08:16.152Z,96892.97
2023-03-05T13:10:55.267Z,96888.31
2023-03-05T13:13:27.262Z,96882.22
2023-03-05T13:15:56.530Z,96889.63
2023-03-05T13:18:28.131Z,96882.94
2023-03-05T13:21:07.911Z,96878.59
2023-03-05T13:23:37.332Z,96880.44
2023-03-05T13:26:15.742Z,96887.41
2023-03-05T13:28:46.011Z,96879.03
2023-03-05T13:31:18.516Z,96884.13
2023-03-05T13:33:56.427Z,96881.88
2023-03-05T13:36:28.395Z,96881.97
2023-03-05T13:38:57.740Z,96886.78
2023-03-05T13:41:29.937Z,96872.63
2023-03-05T13:44:01.012Z,96868.50
2023-03-05T13:46:33.091Z,96860.13
2023-03-05T13:49:23.751Z,96862.66
2023-03-05T13:51:55.940Z,96852.38
2023-03-05T13:54:29.058Z,96848.44
2023-03-05T13:57:02.267Z,96849.06
2023-03-05T13:59:34.459Z,96843.16
2023-03-05T14:02:18.835Z,96844.19
2023-03-05T14:04:49.673Z,96846.63
2023-03-05T14:07:32.131Z,96839.31
2023-03-05T14:10:03.805Z,96838.28
2023-03-05T14:12:37.218Z,96828.31
2023-03-05T14:15:20.941Z,96828.13
2023-03-05T14:17:49.817Z,96819.44
2023-03-05T14:20:29.144Z,96813.88
2023-03-05T14:23:00.729Z,96827.16
2023-03-05T14:25:36.852Z,96812.72
2023-03-05T14:28:22.365Z,96815.16
2023-03-05T14:30:54.665Z,96809.69
2023-03-05T14:33:26.070Z,96808.09
2023-03-05T14:35:55.664Z,96800.66
2023-03-05T14:38:28.377Z,96801.22
2023-03-05T14:40:58.054Z,96798.94
2023-03-05T14:43:30.234Z,96793.34
2023-03-05T14:45:59.669Z,96794.06
2023-03-05T14:48:29.717Z,96798.78
2023-03-05T14:51:01.358Z,96799.25
2023-03-05T14:53:37.363Z,96796.81
2023-03-05T14:56:18.104Z,96793.00
2023-03-05T14:58:49.152Z,96805.84
2023-03-05T15:01:20.277Z,96797.59
2023-03-05T15:03:50.318Z,96796.72
2023-03-05T15:06:26.500Z,96794.56
2023-03-05T15:08:56.158Z,96794.47
2023-03-05T15:11:28.638Z,96798.22
2023-03-05T15:13:59.517Z,96783.44
2023-03-05T15:16:30.479Z,96793.13
2023-03-05T15:19:00.873Z,96800.88
2023-03-05T15:21:30.166Z,96808.06
2023-03-05T15:23:59.819Z,96803.81
2023-03-05T15:26:29.751Z,96799.56
2023-03-05T15:29:00.581Z,96806.09
2023-03-05T15:31:31.682Z,96806.31
2023-03-05T15:34:00.788Z,96801.38
2023-03-05T15:36:31.192Z,96800.81
2023-03-05T15:39:03.285Z,96801.13
2023-03-05T15:41:32.878Z,96804.44
2023-03-05T15:44:04.634Z,96802.44
2023-03-05T15:46:36.247Z,96799.91
2023-03-05T15:49:06.418Z,96796.63
2023-03-05T15:51:34.954Z,96811.91
2023-03-05T15:54:04.943Z,96813.41
2023-03-05T15:56:35.125Z,96812.13
2023-03-05T15:59:06.695Z,96811.47
2023-03-05T16:01:36.148Z,96806.81
2023-03-05T16:04:05.659Z,96809.75
2023-03-05T16:06:39.081Z,96807.78
2023-03-05T16:09:13.258Z,96808.19
2023-03-05T16:11:48.707Z,96808.00
2023-03-05T16:14:24.277Z,96808.31
2023-03-05T16:16:57.647Z,96811.63
2023-03-05T16:19:30.394Z,96810.72
2023-03-05T16:22:00.228Z,96807.09
2023-03-05T16:24:34.697Z,96802.69
2023-03-05T16:27:05.394Z,96812.47
2023-03-05T16:29:39.382Z,96816.34
2023-03-05T16:32:09.472Z,96813.44
2023-03-05T16:34:40.687Z,96823.22
2023-03-05T16:37:10.873Z,96821.34
2023-03-05T16:39:41.510Z,96814.94
2023-03-05T16:42:11.574Z,96816.09
2023-03-05T16:44:43.486Z,96814.75
2023-03-05T16:47:14.163Z,96814.00
2023-03-05T16:49:44.183Z,96816.16
2023-03-05T16:52:19.167Z,96817.41
2023-03-05T16:54:49.703Z,96818.59
2023-03-05T16:57:20.037Z,96817.94
2023-03-05T16:59:51.961Z,96815.69
2023-03-05T17:02:22.492Z,96813.75
2023-03-05T17:04:53.272Z,96821.00
2023-03-05T17:07:23.447Z,96828.81
2023-03-05T17:09:53.825Z,96829.50
2023-03-05T17:12:24.005Z,96828.44
2023-03-05T17:14:55.296Z,96832.88
2023-03-05T17:17:25.136Z,96837.06
2023-03-05T17:19:54.811Z,96842.84
2023-03-05T17:22:25.750Z,96843.06
2023-03-05T17:24:55.095Z,96837.66
2023-03-05T17:27:27.248Z,96840.75
2023-03-05T17:30:00.563Z,96844.66
2023-03-05T17:32:30.802Z,96841.78
2023-03-05T17:35:10.993Z,96853.72
2023-03-05T17:37:40.728Z,96856.22
2023-03-05T17:40:12.933Z,96852.56
2023-03-05T17:42:42.741Z,96856.00
2023-03-05T17:45:15.431Z,96860.72
2023-03-05T17:47:47.911Z,96865.13
2023-03-05T17:50:21.449Z,96861.09
2023-03-05T17:52:53.782Z,96861.66
2023-03-05T17:55:26.451Z,96863.28
2023-03-05T17:57:58.717Z,96871.53
2023-03-05T18:00:32.804Z,96871.75
2023-03-05T18:03:02.739Z,96875.75
2023-03-05T18:05:36.883Z,96870.66
2023-03-05T18:08:07.396Z,96867.69
2023-03-05T18:10:37.638Z,96865.34
2023-03-05T18:13:07.750Z,96862.19
2023-03-05T18:15:48.015Z,96865.94
2023-03-05T18:18:20.032Z,96866.38
2023-03-05T18:20:50.797Z,96862.34
2023-03-05T18:23:20.975Z,96863.56
2023-03-05T18:25:51.224Z,96865.84
2023-03-05T18:28:21.760Z,96870.44
2023-03-05T18:30:53.595Z,96868.88
2023-03-05T18:33:25.935Z,96870.94
2023-03-05T18:35:55.918Z,96870.94
2023-03-05T18:38:28.203Z,96873.50
2023-03-05T18:40:59.607Z,96879.13
2023-03-05T18:43:30.417Z,96874.03
2023-03-05T18:46:05.572Z,96878.56
2023-03-05T18:48:37.109Z,96881.25
2023-03-05T18:51:07.250Z,96877.19
2023-03-05T18:53:43.598Z,96874.59
2023-03-05T18:56:14.683Z,96882.63
2023-03-05T18:58:45.560Z,96888.88
2023-03-05T19:01:21.400Z,96885.72
2023-03-05T19:03:54.351Z,96880.84
2023-03-05T19:06:24.723Z,96887.09
2023-03-05T19:08:59.479Z,96881.28
2023-03-05T19:11:29.626Z,96882.06
2023-03-05T19:13:59.946Z,96879.72
2023-03-05T19:16:38.878Z,96881.69
2023-03-05T19:19:15.999Z,96887.06
2023-03-05T19:21:49.323Z,96883.63
2023-03-05T19:24:20.391Z,96887.31
2023-03-05T19:26:55.973Z,96893.66
2023-03-05T19:29:26.821Z,96889.41
2023-03-05T19:31:58.973Z,96886.72
2023-03-05T19:34:29.084Z,96897.19
2023-03-05T19:36:59.989Z,96890.38
2023-03-05T19:39:30.482Z,96887.63
2023-03-05T19:42:01.154Z,96889.41
2023-03-05T19:44:34.284Z,96892.41
2023-03-05T19:47:05.299Z,96891.34
2023-03-05T19:49:36.775Z,96893.19
2023-03-05T19:52:07.234Z,96883.44
2023-03-05T19:54:40.943Z,96886.13
2023-03-05T19:57:10.634Z,96889.66
2023-03-05T19:59:41.208Z,96885.16
2023-03-05T20:02:19.562Z,96892.53
2023-03-05T20:04:52.109Z,96877.53
2023-03-05T20:07:23.428Z,96880.66
2023-03-05T20:09:55.875Z,96888.38
2023-03-05T20:12:26.856Z,96884.84
2023-03-05T20:14:56.888Z,96889.28
2023-03-05T20:17:28.272Z,96889.09
2023-03-05T20:20:00.259Z,96891.31
2023-03-05T20:22:30.646Z,96886.06
2023-03-05T20:25:02.021Z,96885.13
2023-03-05T20:27:31.623Z,96886.06
2023-03-05T20:30:01.628Z,96888.53
2023-03-05T20:32:33.868Z,96891.59
2023-03-05T20:35:06.870Z,96889.50
2023-03-05T20:37:40.659Z,96885.72
2023-03-05T20:40:11.701Z,96877.75
2023-03-05T20:42:42.294Z,96879.22
2023-03-05T20:45:12.649Z,96879.00
2023-03-05T20:47:46.667Z,96881.97
2023-03-05T20:50:16.888Z,96882.47
2023-03-05T20:52:47.185Z,96882.25
2023-03-05T20:55:17.358Z,96882.31
2023-03-05T20:57:46.848Z,96892.28
2023-03-05T21:00:24.110Z,96888.81
2023-03-05T21:02:56.624Z,96889.59
2023-03-05T21:05:28.226Z,96886.03
2023-03-05T21:07:57.753Z,96889.31
2023-03-05T21:10:30.067Z,96894.25
2023-03-05T21:13:01.004Z,96888.69
2023-03-05T21:15:33.632Z,96888.88
2023-03-05T21:18:04.501Z,96880.63
2023-03-05T21:20:34.279Z,96886.69
2023-03-05T21:23:04.263Z,96888.63
2023-03-05T21:25:35.994Z,96877.84
2023-03-05T21:28:08.797Z,96875.22
2023-03-05T21:30:40.275Z,96874.22
2023-03-05T21:33:12.699Z,96868.19
2023-03-05T21:35:41.748Z,96874.22
2023-03-05T21:38:11.735Z,96878.00
2023-03-05T21:40:43.999Z,96878.75
2023-03-05T21:43:14.106Z,96881.44
2023-03-05T21:45:43.220Z,96883.94
2023-03-05T21:48:13.241Z,96876.84
2023-03-05T21:50:43.037Z,96878.81
2023-03-05T21:53:12.112Z,96878.69
2023-03-05T21:55:46.559Z,96879.47
2023-03-05T21:58:15.021Z,96876.78
2023-03-05T22:00:43.171Z,96867.28
2023-03-05T22:03:12.726Z,96869.28
2023-03-05T22:05:43.407Z,96867.88
2023-03-05T22:08:11.520Z,96868.44
2023-03-05T22:10:41.998Z,96873.75
2023-03-05T22:13:13.992Z,96869.34
2023-03-05T22:15:47.869Z,96866.00
2023-03-05T22:18:21.401Z,96869.19
2023-03-05T22:20:50.484Z,96864.84
2023-03-05T22:23:22.230Z,96866.50
2023-03-05T22:25:57.495Z,96867.41
2023-03-05T22:28:26.532Z,96870.66
2023-03-05T22:30:55.664Z,96857.28
2023-03-05T22:33:25.455Z,96862.34
2023-03-05T22:35:53.650Z,96864.88
2023-03-05T22:38:22.487Z,96854.63
2023-03-05T22:40:51.226Z,96861.72
2023-03-05T22:43:19.977Z,96864.41
2023-03-05T22:45:48.259Z,96861.88
2023-03-05T22:48:16.730Z,96862.94
2023-03-05T22:50:46.291Z,96867.34
2023-03-05T22:53:14.454Z,96862.50
2023-03-05T22:55:43.791Z,96860.88
2023-03-05T22:58:11.893Z,96858.41
2023-03-05T23:00:40.034Z,96856.66
2023-03-05T23:03:08.259Z,96858.41
2023-03-05T23:05:36.807Z,96854.19
2023-03-05T23:08:06.860Z,96848.91
2023-03-05T23:10:35.142Z,96846.72
2023-03-05T23:13:03.335Z,96855.38
2023-03-05T23:15:33.170Z,96858.16
2023-03-05T23:18:01.446Z,96849.16
2023-03-05T23:20:32.794Z,96845.50
2023-03-05T23:23:01.656Z,96845.88
2023-03-05T23:25:33.389Z,96846.25
2023-03-05T23:28:02.597Z,96844.56
2023-03-05T23:30:31.665Z,96845.50
2023-03-05T23:33:04.166Z,96839.31
2023-03-05T23:35:33.948Z,96839.56
2023-03-05T23:38:03.087Z,96838.19
2023-03-05T23:40:34.539Z,96828.69
2023-03-05T23:43:02.767Z,96836.44
2023-03-05T23:45:31.497Z,96839.00
2023-03-05T23:47:59.912Z,96831.13
2023-03-05T23:50:30.364Z,96824.44
2023-03-05T23:53:01.370Z,96830.66
2023-03-05T23:55:34.161Z,96837.75
2023-03-05T23:58:02.445Z,96844.56
